Victory — WDF7020 — position and weather

sailwx.info

Track history (hours):
 
Tides and Currents Weather Stations Pressure Air Temp Water Temp Dewpoint Dewpoint Depression Visibility Wind Speed Wind Dir Waves Ship Positions

Victory

Owner: Grand River Navigation Company, Inc., Traverse City, MI. More information available from US FCC via Universal Licensing System and Coast Guard Vessel Documentation Center.

Last reported at 2018-Jan-01 15:00 UTC. Time now 2018-Jan-22 18:38 UTC.
Position N 44°42' W 087°18'.
Warning: this ship's position is 21 days out of date.

Length 38 m; draft 6.4 m.

MMSI: 367480260.

Wind from 310 at 24 knots

Barometer 1036.5 mb
Air temperature -20.5 ° C
Visibility: greater than 10.8 NM
Water temperature 0.5 ° C

Date/timePositionNaut miles runAvg speedWind from/ knotsBaromVisibWave heightAir tempDewpointWater temp
2018-Jan-01 15:00N 44°42' W 087°18'1312.7 310 / 241036.510.8 -20.5 0.5
2018-Jan-01 14:00N 44°54' W 087°12'7 7.4 310 / 261035.5 5.4 -21.6 0.5
2018-Jan-01 13:00N 45°00' W 087°06'1010.4 310 / 261034.810.8 -21.6 0.5
2018-Jan-01 12:00N 45°06' W 086°54'0 0.0 330 / 281033.110.8 -14.4
2018-Jan-01 11:00N 45°06' W 086°54'7 7.3 330 / 281033.110.8 -14.4
2018-Jan-01 10:00N 45°12' W 086°48'60 6.3 330 / 281033.110.8 -14.4
2018-Jan-01 00:29N 45°53' W 085°46'34 9.9
2017-Dec-31 21:00N 45°50' W 084°56'510.0
2017-Dec-31 20:30N 45°49' W 084°49'510.8
2017-Dec-31 20:00N 45°49' W 084°41'510.4
2017-Dec-31 19:30N 45°51' W 084°34'510.6
2017-Dec-31 19:00N 45°51' W 084°27'610.8
2017-Dec-31 18:29N 45°50' W 084°19'19 7.6
2017-Dec-31 16:00N 45°42' W 083°54'7 7.3 010 / 101033.5 1.1 -15.5 0.5
2017-Dec-31 15:00N 45°36' W 083°48'217.4 360 / 121032.8 2.2 -15.5 0.5
2017-Dec-31 14:52N 45°38' W 083°47'5 1.8
2017-Dec-31 12:09N 45°42' W 083°51'1 7.0
2017-Dec-31 12:00N 45°41' W 083°50'2148.8
2017-Dec-31 12:00N 45°42' W 083°48'3 6.7 360 / 141031.410.8 -13.3
2017-Dec-31 11:30N 45°39' W 083°46'3 6.4
2017-Dec-31 11:00N 45°42' W 083°48'6 6.0 360 / 181031.410.8 -13.3
2017-Dec-31 10:00N 45°48' W 083°48'6 9.0 350 / 191031.410.8 -13.3
2017-Dec-31 09:21N 45°43' W 083°52'2 7.1
2017-Dec-31 09:00N 45°41' W 083°49'168.4
2017-Dec-31 09:00N 45°42' W 083°48'4 7.5 350 / 191031.410.8 -13.3
2017-Dec-31 08:30N 45°39' W 083°45'1 1.5
2017-Dec-31 07:59N 45°39' W 083°46'5 2.7
2017-Dec-31 06:05N 45°43' W 083°51'1 7.5
2017-Dec-31 06:00N 45°42' W 083°51'4 7.4
2017-Dec-31 05:30N 45°40' W 083°46'2 4.4
2017-Dec-31 05:01N 45°38' W 083°45'6 2.5
2017-Dec-31 02:28N 45°42' W 083°52'3 7.1
2017-Dec-31 02:00N 45°40' W 083°48'2193.5
2017-Dec-31 02:00N 45°42' W 083°48'4 8.4 360 / 151027.010.8 -9.9
2017-Dec-31 01:30N 45°39' W 083°45'6 1.9
2017-Dec-30 22:33N 45°42' W 083°51'0 7.2
2017-Dec-30 22:30N 45°42' W 083°51'5 6.5
2017-Dec-30 21:47N 45°38' W 083°48'3 7.1
2017-Dec-30 21:22N 45°35' W 083°47'3 7.2
2017-Dec-30 21:00N 45°32' W 083°47'4329.6
2017-Dec-30 21:00N 45°36' W 083°48'715.4 350 / 181023.310.8 -9.9
2017-Dec-30 20:31N 45°29' W 083°47'3 6.7
2017-Dec-30 20:01N 45°25' W 083°46'1 1.6
2017-Dec-30 19:30N 45°25' W 083°47'0 0.1
2017-Dec-30 19:00N 45°25' W 083°47'0 0.0
2017-Dec-30 18:30N 45°25' W 083°47'0 0.0
2017-Dec-30 18:01N 45°25' W 083°47'0 0.0
2017-Dec-30 17:30N 45°25' W 083°47'0 0.0
2017-Dec-30 17:00N 45°25' W 083°47'0 0.0
2017-Dec-30 16:31N 45°25' W 083°47'0 0.0
2017-Dec-30 16:01N 45°25' W 083°47'0 0.0
2017-Dec-30 15:31N 45°25' W 083°47'0 0.0
2017-Dec-30 15:00N 45°25' W 083°47'0 0.0
2017-Dec-30 14:31N 45°25' W 083°47'0 0.0
2017-Dec-30 14:00N 45°25' W 083°47'0 0.0
2017-Dec-30 13:30N 45°25' W 083°47'0 0.0
2017-Dec-30 13:01N 45°25' W 083°47'0 0.0
2017-Dec-30 12:31N 45°25' W 083°47'0 0.0
2017-Dec-30 12:00N 45°25' W 083°47'0 0.0
2017-Dec-30 11:30N 45°25' W 083°47'0 0.0
2017-Dec-30 11:01N 45°25' W 083°47'0 0.0
2017-Dec-30 10:31N 45°25' W 083°47'0 0.0
2017-Dec-30 10:00N 45°25' W 083°47'0 0.0
2017-Dec-30 09:30N 45°25' W 083°47'0 0.0
2017-Dec-30 09:00N 45°25' W 083°47'0 0.0
2017-Dec-30 08:31N 45°25' W 083°47'0 0.0
2017-Dec-30 08:00N 45°25' W 083°47'0 0.0
2017-Dec-30 07:30N 45°25' W 083°47'0 0.0
2017-Dec-30 07:01N 45°25' W 083°47'0 0.0
2017-Dec-30 06:31N 45°25' W 083°47'0 0.0
2017-Dec-30 06:00N 45°25' W 083°47'0 0.0
2017-Dec-30 05:30N 45°25' W 083°47'0 0.0
2017-Dec-30 05:01N 45°25' W 083°47'0 0.0
2017-Dec-30 04:30N 45°25' W 083°47'0 0.0
2017-Dec-30 04:01N 45°25' W 083°47'0 0.0
2017-Dec-30 03:30N 45°25' W 083°47'0 0.0
2017-Dec-30 03:00N 45°25' W 083°47'0 0.0
2017-Dec-30 02:31N 45°25' W 083°47'0 0.0
2017-Dec-30 02:00N 45°25' W 083°47'0 0.0
2017-Dec-30 01:30N 45°25' W 083°47'0 0.0
2017-Dec-30 01:01N 45°25' W 083°47'0 0.0
2017-Dec-30 00:30N 45°25' W 083°47'0 0.0
2017-Dec-30 00:00N 45°25' W 083°47'0 0.0
2017-Dec-29 23:30N 45°25' W 083°47'0 0.0
2017-Dec-29 23:00N 45°25' W 083°47'0 0.0
2017-Dec-29 22:30N 45°25' W 083°47'0 0.0
2017-Dec-29 22:00N 45°25' W 083°47'0 0.0
2017-Dec-29 21:31N 45°25' W 083°47'0 0.0
2017-Dec-29 21:00N 45°25' W 083°47'0 0.0
2017-Dec-29 20:30N 45°25' W 083°47'0 0.0
2017-Dec-29 20:01N 45°25' W 083°47'0 0.0
2017-Dec-29 19:31N 45°25' W 083°47'0 0.0
2017-Dec-29 19:00N 45°25' W 083°47'0 0.0
2017-Dec-29 18:30N 45°25' W 083°47'0 0.0
2017-Dec-29 18:00N 45°25' W 083°47'0 0.0
2017-Dec-29 17:31N 45°25' W 083°47'0 0.0
2017-Dec-29 17:00N 45°25' W 083°47'0 0.0
2017-Dec-29 16:31N 45°25' W 083°47'0 0.0
2017-Dec-29 16:00N 45°25' W 083°47'0 0.0
2017-Dec-29 15:30N 45°25' W 083°47'0 0.0
2017-Dec-29 15:00N 45°25' W 083°47'0 0.0
2017-Dec-29 14:30N 45°25' W 083°47'0 0.0
2017-Dec-29 14:01N 45°25' W 083°47'0 0.0
2017-Dec-29 13:30N 45°25' W 083°47'0 0.0
2017-Dec-29 13:00N 45°25' W 083°47'0 0.0
2017-Dec-29 12:30N 45°25' W 083°47'0 0.0
2017-Dec-29 12:00N 45°25' W 083°47'0 0.0
2017-Dec-29 11:30N 45°25' W 083°47'0 0.0
2017-Dec-29 11:00N 45°25' W 083°47'0 0.0
2017-Dec-29 10:30N 45°25' W 083°47'0 0.0
2017-Dec-29 10:00N 45°25' W 083°47'0 0.0
2017-Dec-29 09:30N 45°25' W 083°47'0 0.0
2017-Dec-29 09:00N 45°25' W 083°47'0 0.0
2017-Dec-29 08:31N 45°25' W 083°47'0 0.0
2017-Dec-29 08:01N 45°25' W 083°47'0 0.0
2017-Dec-29 07:31N 45°25' W 083°47'0 0.0
2017-Dec-29 07:00N 45°25' W 083°47'0 0.0
2017-Dec-29 06:30N 45°25' W 083°47'0 0.0
2017-Dec-29 06:01N 45°25' W 083°47'0 0.0
2017-Dec-29 05:31N 45°25' W 083°47'0 0.0
2017-Dec-29 05:00N 45°25' W 083°47'0 0.0
2017-Dec-29 04:31N 45°25' W 083°47'0 0.0
2017-Dec-29 04:00N 45°25' W 083°47'0 0.0
2017-Dec-29 03:30N 45°25' W 083°47'0 0.0
2017-Dec-29 03:01N 45°25' W 083°47'0 0.0
2017-Dec-29 02:30N 45°25' W 083°47'1 2.9
2017-Dec-29 02:00N 45°25' W 083°45'5 9.8
2017-Dec-29 01:30N 45°25' W 083°38'610.9
2017-Dec-29 01:00N 45°24' W 083°31'18 8.8
2017-Dec-28 23:00N 45°12' W 083°12'2222.0 270 / 61033.510.8 -8.8
2017-Dec-28 22:00N 44°54' W 082°54'7 7.4 070 / 131034.110.8 -12.2
2017-Dec-28 21:00N 44°48' W 082°48'65 7.3 330 / 61034.810.8 -8.8
2017-Dec-28 12:00N 43°48' W 082°12'3636.3 330 / 151038.610.8 -13.3
2017-Dec-28 11:00N 43°12' W 082°18'4 0.1 340 / 121038.610.8 -12.2
2017-Dec-26 13:00N 43°12' W 082°24'2412.2 270 / 221030.810.8 -14.4 1.6
2017-Dec-26 11:00N 43°36' W 082°30'1212.0 260 / 231028.710.8 -8.8
2017-Dec-26 10:00N 43°48' W 082°30'1110.5 260 / 281026.010.8 -12.2
2017-Dec-26 09:00N 43°54' W 082°42'8910.1 260 / 281026.010.8 -12.2
2017-Dec-26 00:13N 45°18' W 083°21'2 9.5
2017-Dec-26 00:00N 45°18' W 083°18'41754.9 280 / 251017.910.8 -9.9
2017-Dec-25 23:59N 45°20' W 083°24'511.1
2017-Dec-25 23:31N 45°24' W 083°29'611.2
2017-Dec-25 23:01N 45°27' W 083°35'5288.6
2017-Dec-25 23:00N 45°24' W 083°30'1021.3 280 / 291016.910.8 -8.8
2017-Dec-25 22:30N 45°30' W 083°42'0 0.4
2017-Dec-25 22:00N 45°30' W 083°42'6201.8 280 / 301015.510.8 -9.9
2017-Dec-25 21:58N 45°33' W 083°49'511.0
2017-Dec-25 21:30N 45°36' W 083°55'712.8
2017-Dec-25 21:00N 45°42' W 084°00'810.9 280 / 301014.810.8 -9.9
2017-Dec-25 20:18N 45°45' W 084°10'84 4.6
2017-Dec-25 02:00N 46°48' W 085°30'4110.3 120 / 81013.210.8 -6.6
2017-Dec-24 22:00N 46°48' W 086°30'1212.3 080 / 161015.910.8 -5.5
2017-Dec-24 21:00N 46°48' W 086°48'   090 / 121015.510.8 -3.3
Track history (hours):
 
Tides and Currents Weather Stations Pressure Air Temp Water Temp Dewpoint Dewpoint Depression Visibility Wind Speed Wind Dir Waves Ship Positions

Victory

Owner: Grand River Navigation Company, Inc., Traverse City, MI. More information available from US FCC via Universal Licensing System and Coast Guard Vessel Documentation Center.

Last reported at 2018-Jan-01 15:00 UTC. Time now 2018-Jan-22 18:38 UTC.
Position N 44°42' W 087°18'.
Warning: this ship's position is 21 days out of date.

Length 38 m; draft 6.4 m.

MMSI: 367480260.

Wind from 310 at 24 knots

Barometer 1036.5 mb
Air temperature -20.5 ° C
Visibility: greater than 10.8 NM
Water temperature 0.5 ° C

Date/timePositionNaut miles runAvg speedWind from/ knotsBaromVisibWave heightAir tempDewpointWater temp
2018-Jan-01 15:00N 44°42' W 087°18'1312.7 310 / 241036.510.8 -20.5 0.5
2018-Jan-01 14:00N 44°54' W 087°12'7 7.4 310 / 261035.5 5.4 -21.6 0.5
2018-Jan-01 13:00N 45°00' W 087°06'1010.4 310 / 261034.810.8 -21.6 0.5
2018-Jan-01 12:00N 45°06' W 086°54'0 0.0 330 / 281033.110.8 -14.4
2018-Jan-01 11:00N 45°06' W 086°54'7 7.3 330 / 281033.110.8 -14.4
2018-Jan-01 10:00N 45°12' W 086°48'60 6.3 330 / 281033.110.8 -14.4
2018-Jan-01 00:29N 45°53' W 085°46'34 9.9
2017-Dec-31 21:00N 45°50' W 084°56'510.0
2017-Dec-31 20:30N 45°49' W 084°49'510.8
2017-Dec-31 20:00N 45°49' W 084°41'510.4
2017-Dec-31 19:30N 45°51' W 084°34'510.6
2017-Dec-31 19:00N 45°51' W 084°27'610.8
2017-Dec-31 18:29N 45°50' W 084°19'19 7.6
2017-Dec-31 16:00N 45°42' W 083°54'7 7.3 010 / 101033.5 1.1 -15.5 0.5
2017-Dec-31 15:00N 45°36' W 083°48'217.4 360 / 121032.8 2.2 -15.5 0.5
2017-Dec-31 14:52N 45°38' W 083°47'5 1.8
2017-Dec-31 12:09N 45°42' W 083°51'1 7.0
2017-Dec-31 12:00N 45°41' W 083°50'2148.8
2017-Dec-31 12:00N 45°42' W 083°48'3 6.7 360 / 141031.410.8 -13.3
2017-Dec-31 11:30N 45°39' W 083°46'3 6.4
2017-Dec-31 11:00N 45°42' W 083°48'6 6.0 360 / 181031.410.8 -13.3
2017-Dec-31 10:00N 45°48' W 083°48'6 9.0 350 / 191031.410.8 -13.3
2017-Dec-31 09:21N 45°43' W 083°52'2 7.1
2017-Dec-31 09:00N 45°41' W 083°49'168.4
2017-Dec-31 09:00N 45°42' W 083°48'4 7.5 350 / 191031.410.8 -13.3
2017-Dec-31 08:30N 45°39' W 083°45'1 1.5
2017-Dec-31 07:59N 45°39' W 083°46'5 2.7
2017-Dec-31 06:05N 45°43' W 083°51'1 7.5
2017-Dec-31 06:00N 45°42' W 083°51'4 7.4
2017-Dec-31 05:30N 45°40' W 083°46'2 4.4
2017-Dec-31 05:01N 45°38' W 083°45'6 2.5
2017-Dec-31 02:28N 45°42' W 083°52'3 7.1
2017-Dec-31 02:00N 45°40' W 083°48'2193.5
2017-Dec-31 02:00N 45°42' W 083°48'4 8.4 360 / 151027.010.8 -9.9
2017-Dec-31 01:30N 45°39' W 083°45'6 1.9
2017-Dec-30 22:33N 45°42' W 083°51'0 7.2
2017-Dec-30 22:30N 45°42' W 083°51'5 6.5
2017-Dec-30 21:47N 45°38' W 083°48'3 7.1
2017-Dec-30 21:22N 45°35' W 083°47'3 7.2
2017-Dec-30 21:00N 45°32' W 083°47'4329.6
2017-Dec-30 21:00N 45°36' W 083°48'715.4 350 / 181023.310.8 -9.9
2017-Dec-30 20:31N 45°29' W 083°47'3 6.7
2017-Dec-30 20:01N 45°25' W 083°46'1 1.6
2017-Dec-30 19:30N 45°25' W 083°47'0 0.1
2017-Dec-30 19:00N 45°25' W 083°47'0 0.0
2017-Dec-30 18:30N 45°25' W 083°47'0 0.0
2017-Dec-30 18:01N 45°25' W 083°47'0 0.0
2017-Dec-30 17:30N 45°25' W 083°47'0 0.0
2017-Dec-30 17:00N 45°25' W 083°47'0 0.0
2017-Dec-30 16:31N 45°25' W 083°47'0 0.0
2017-Dec-30 16:01N 45°25' W 083°47'0 0.0
2017-Dec-30 15:31N 45°25' W 083°47'0 0.0
2017-Dec-30 15:00N 45°25' W 083°47'0 0.0
2017-Dec-30 14:31N 45°25' W 083°47'0 0.0
2017-Dec-30 14:00N 45°25' W 083°47'0 0.0
2017-Dec-30 13:30N 45°25' W 083°47'0 0.0
2017-Dec-30 13:01N 45°25' W 083°47'0 0.0
2017-Dec-30 12:31N 45°25' W 083°47'0 0.0
2017-Dec-30 12:00N 45°25' W 083°47'0 0.0
2017-Dec-30 11:30N 45°25' W 083°47'0 0.0
2017-Dec-30 11:01N 45°25' W 083°47'0 0.0
2017-Dec-30 10:31N 45°25' W 083°47'0 0.0
2017-Dec-30 10:00N 45°25' W 083°47'0 0.0
2017-Dec-30 09:30N 45°25' W 083°47'0 0.0
2017-Dec-30 09:00N 45°25' W 083°47'0 0.0
2017-Dec-30 08:31N 45°25' W 083°47'0 0.0
2017-Dec-30 08:00N 45°25' W 083°47'0 0.0
2017-Dec-30 07:30N 45°25' W 083°47'0 0.0
2017-Dec-30 07:01N 45°25' W 083°47'0 0.0
2017-Dec-30 06:31N 45°25' W 083°47'0 0.0
2017-Dec-30 06:00N 45°25' W 083°47'0 0.0
2017-Dec-30 05:30N 45°25' W 083°47'0 0.0
2017-Dec-30 05:01N 45°25' W 083°47'0 0.0
2017-Dec-30 04:30N 45°25' W 083°47'0 0.0
2017-Dec-30 04:01N 45°25' W 083°47'0 0.0
2017-Dec-30 03:30N 45°25' W 083°47'0 0.0
2017-Dec-30 03:00N 45°25' W 083°47'0 0.0
2017-Dec-30 02:31N 45°25' W 083°47'0 0.0
2017-Dec-30 02:00N 45°25' W 083°47'0 0.0
2017-Dec-30 01:30N 45°25' W 083°47'0 0.0
2017-Dec-30 01:01N 45°25' W 083°47'0 0.0
2017-Dec-30 00:30N 45°25' W 083°47'0 0.0
2017-Dec-30 00:00N 45°25' W 083°47'0 0.0
2017-Dec-29 23:30N 45°25' W 083°47'0 0.0
2017-Dec-29 23:00N 45°25' W 083°47'0 0.0
2017-Dec-29 22:30N 45°25' W 083°47'0 0.0
2017-Dec-29 22:00N 45°25' W 083°47'0 0.0
2017-Dec-29 21:31N 45°25' W 083°47'0 0.0
2017-Dec-29 21:00N 45°25' W 083°47'0 0.0
2017-Dec-29 20:30N 45°25' W 083°47'0 0.0
2017-Dec-29 20:01N 45°25' W 083°47'0 0.0
2017-Dec-29 19:31N 45°25' W 083°47'0 0.0
2017-Dec-29 19:00N 45°25' W 083°47'0 0.0
2017-Dec-29 18:30N 45°25' W 083°47'0 0.0
2017-Dec-29 18:00N 45°25' W 083°47'0 0.0
2017-Dec-29 17:31N 45°25' W 083°47'0 0.0
2017-Dec-29 17:00N 45°25' W 083°47'0 0.0
2017-Dec-29 16:31N 45°25' W 083°47'0 0.0
2017-Dec-29 16:00N 45°25' W 083°47'0 0.0
2017-Dec-29 15:30N 45°25' W 083°47'0 0.0
2017-Dec-29 15:00N 45°25' W 083°47'0 0.0
2017-Dec-29 14:30N 45°25' W 083°47'0 0.0
2017-Dec-29 14:01N 45°25' W 083°47'0 0.0
2017-Dec-29 13:30N 45°25' W 083°47'0 0.0
2017-Dec-29 13:00N 45°25' W 083°47'0 0.0
2017-Dec-29 12:30N 45°25' W 083°47'0 0.0
2017-Dec-29 12:00N 45°25' W 083°47'0 0.0
2017-Dec-29 11:30N 45°25' W 083°47'0 0.0
2017-Dec-29 11:00N 45°25' W 083°47'0 0.0
2017-Dec-29 10:30N 45°25' W 083°47'0 0.0
2017-Dec-29 10:00N 45°25' W 083°47'0 0.0
2017-Dec-29 09:30N 45°25' W 083°47'0 0.0
2017-Dec-29 09:00N 45°25' W 083°47'0 0.0
2017-Dec-29 08:31N 45°25' W 083°47'0 0.0
2017-Dec-29 08:01N 45°25' W 083°47'0 0.0
2017-Dec-29 07:31N 45°25' W 083°47'0 0.0
2017-Dec-29 07:00N 45°25' W 083°47'0 0.0
2017-Dec-29 06:30N 45°25' W 083°47'0 0.0
2017-Dec-29 06:01N 45°25' W 083°47'0 0.0
2017-Dec-29 05:31N 45°25' W 083°47'0 0.0
2017-Dec-29 05:00N 45°25' W 083°47'0 0.0
2017-Dec-29 04:31N 45°25' W 083°47'0 0.0
2017-Dec-29 04:00N 45°25' W 083°47'0 0.0
2017-Dec-29 03:30N 45°25' W 083°47'0 0.0
2017-Dec-29 03:01N 45°25' W 083°47'0 0.0
2017-Dec-29 02:30N 45°25' W 083°47'1 2.9
2017-Dec-29 02:00N 45°25' W 083°45'5 9.8
2017-Dec-29 01:30N 45°25' W 083°38'610.9
2017-Dec-29 01:00N 45°24' W 083°31'18 8.8
2017-Dec-28 23:00N 45°12' W 083°12'2222.0 270 / 61033.510.8 -8.8
2017-Dec-28 22:00N 44°54' W 082°54'7 7.4 070 / 131034.110.8 -12.2
2017-Dec-28 21:00N 44°48' W 082°48'65 7.3 330 / 61034.810.8 -8.8
2017-Dec-28 12:00N 43°48' W 082°12'3636.3 330 / 151038.610.8 -13.3
2017-Dec-28 11:00N 43°12' W 082°18'4 0.1 340 / 121038.610.8 -12.2
2017-Dec-26 13:00N 43°12' W 082°24'2412.2 270 / 221030.810.8 -14.4 1.6
2017-Dec-26 11:00N 43°36' W 082°30'1212.0 260 / 231028.710.8 -8.8
2017-Dec-26 10:00N 43°48' W 082°30'1110.5 260 / 281026.010.8 -12.2
2017-Dec-26 09:00N 43°54' W 082°42'8910.1 260 / 281026.010.8 -12.2
2017-Dec-26 00:13N 45°18' W 083°21'2 9.5
2017-Dec-26 00:00N 45°18' W 083°18'41754.9 280 / 251017.910.8 -9.9
2017-Dec-25 23:59N 45°20' W 083°24'511.1
2017-Dec-25 23:31N 45°24' W 083°29'611.2
2017-Dec-25 23:01N 45°27' W 083°35'5288.6
2017-Dec-25 23:00N 45°24' W 083°30'1021.3 280 / 291016.910.8 -8.8
2017-Dec-25 22:30N 45°30' W 083°42'0 0.4
2017-Dec-25 22:00N 45°30' W 083°42'6201.8 280 / 301015.510.8 -9.9
2017-Dec-25 21:58N 45°33' W 083°49'511.0
2017-Dec-25 21:30N 45°36' W 083°55'712.8
2017-Dec-25 21:00N 45°42' W 084°00'810.9 280 / 301014.810.8 -9.9
2017-Dec-25 20:18N 45°45' W 084°10'84 4.6
2017-Dec-25 02:00N 46°48' W 085°30'4110.3 120 / 81013.210.8 -6.6
2017-Dec-24 22:00N 46°48' W 086°30'1212.3 080 / 161015.910.8 -5.5
2017-Dec-24 21:00N 46°48' W 086°48'   090 / 121015.510.8 -3.3

Dump ship's entire track history